sensor_id;sensor_type;location;lat;lon;timestamp;temperature;humidity
4207;DHT22;2117;47.972;7.830;2024-03-08T00:01:15;2.90;99.90
4207;DHT22;2117;47.972;7.830;2024-03-08T00:03:42;2.80;99.90
4207;DHT22;2117;47.972;7.830;2024-03-08T00:06:08;2.80;99.90
4207;DHT22;2117;47.972;7.830;2024-03-08T00:08:33;2.80;99.90
4207;DHT22;2117;47.972;7.830;2024-03-08T00:10:59;2.70;99.90
4207;DHT22;2117;47.972;7.830;2024-03-08T00:13:24;2.70;99.90
4207;DHT22;2117;47.972;7.830;2024-03-08T00:15:50;2.70;99.90
4207;DHT22;2117;47.972;7.830;2024-03-08T00:18:16;2.70;99.90
4207;DHT22;2117;47.972;7.830;2024-03-08T00:20:42;2.70;99.90
4207;DHT22;2117;47.972;7.830;2024-03-08T00:23:09;2.60;99.90
4207;DHT22;2117;47.972;7.830;2024-03-08T00:25:36;2.70;99.90
4207;DHT22;2117;47.972;7.830;2024-03-08T00:28:02;2.60;99.90
4207;DHT22;2117;47.972;7.830;2024-03-08T00:30:27;2.60;99.90
4207;DHT22;2117;47.972;7.830;2024-03-08T00:32:53;2.70;99.90
4207;DHT22;2117;47.972;7.830;2024-03-08T00:35:18;2.70;99.90
4207;DHT22;2117;47.972;7.830;2024-03-08T00:37:44;2.70;99.90
4207;DHT22;2117;47.972;7.830;2024-03-08T00:40:13;2.70;99.90
4207;DHT22;2117;47.972;7.830;2024-03-08T00:42:38;2.70;99.90
4207;DHT22;2117;47.972;7.830;2024-03-08T00:45:05;2.60;99.90
4207;DHT22;2117;47.972;7.830;2024-03-08T00:47:31;2.60;99.90
4207;DHT22;2117;47.972;7.830;2024-03-08T00:49:56;2.60;99.90
4207;DHT22;2117;47.972;7.830;2024-03-08T00:52:22;2.60;99.90
4207;DHT22;2117;47.972;7.830;2024-03-08T00:54:49;2.60;99.90
4207;DHT22;2117;47.972;7.830;2024-03-08T00:57:15;2.60;99.90
4207;DHT22;2117;47.972;7.830;2024-03-08T00:59:40;2.60;99.90
4207;DHT22;2117;47.972;7.830;2024-03-08T01:02:06;2.60;99.90
4207;DHT22;2117;47.972;7.830;2024-03-08T01:04:31;2.50;99.90
4207;DHT22;2117;47.972;7.830;2024-03-08T01:06:58;2.50;99.90
4207;DHT22;2117;47.972;7.830;2024-03-08T01:09:24;2.50;99.90
4207;DHT22;2117;47.972;7.830;2024-03-08T01:11:52;2.40;99.90
4207;DHT22;2117;47.972;7.830;2024-03-08T01:14:20;2.40;99.90
4207;DHT22;2117;47.972;7.830;2024-03-08T01:16:48;2.40;99.90
4207;DHT22;2117;47.972;7.830;2024-03-08T01:19:13;2.40;99.90
4207;DHT22;2117;47.972;7.830;2024-03-08T01:21:39;2.30;99.90
4207;DHT22;2117;47.972;7.830;2024-03-08T01:24:05;2.30;99.90
4207;DHT22;2117;47.972;7.830;2024-03-08T01:26:31;2.20;99.90
4207;DHT22;2117;47.972;7.830;2024-03-08T01:28:56;2.20;99.90
4207;DHT22;2117;47.972;7.830;2024-03-08T01:31:22;2.10;99.90
4207;DHT22;2117;47.972;7.830;2024-03-08T01:33:47;2.10;99.90
4207;DHT22;2117;47.972;7.830;2024-03-08T01:36:13;2.10;99.90
4207;DHT22;2117;47.972;7.830;2024-03-08T01:38:41;2.10;99.90
4207;DHT22;2117;47.972;7.830;2024-03-08T01:41:07;2.00;99.90
4207;DHT22;2117;47.972;7.830;2024-03-08T01:43:33;2.00;99.90
4207;DHT22;2117;47.972;7.830;2024-03-08T01:45:58;2.00;99.90
4207;DHT22;2117;47.972;7.830;2024-03-08T01:48:28;2.00;99.90
4207;DHT22;2117;47.972;7.830;2024-03-08T01:50:56;2.00;99.90
4207;DHT22;2117;47.972;7.830;2024-03-08T01:53:26;2.00;99.90
4207;DHT22;2117;47.972;7.830;2024-03-08T01:55:55;2.00;99.90
4207;DHT22;2117;47.972;7.830;2024-03-08T01:58:22;2.00;99.90
4207;DHT22;2117;47.972;7.830;2024-03-08T02:00:48;2.00;99.90
4207;DHT22;2117;47.972;7.830;2024-03-08T02:03:15;2.00;99.90
4207;DHT22;2117;47.972;7.830;2024-03-08T02:05:41;2.00;99.90
4207;DHT22;2117;47.972;7.830;2024-03-08T02:08:08;2.00;99.90
4207;DHT22;2117;47.972;7.830;2024-03-08T02:10:38;2.00;99.90
4207;DHT22;2117;47.972;7.830;2024-03-08T02:13:04;2.00;99.90
4207;DHT22;2117;47.972;7.830;2024-03-08T02:15:58;2.00;99.90
4207;DHT22;2117;47.972;7.830;2024-03-08T02:18:27;2.00;99.90
4207;DHT22;2117;47.972;7.830;2024-03-08T02:20:55;2.00;99.90
4207;DHT22;2117;47.972;7.830;2024-03-08T02:23:20;2.00;99.90
4207;DHT22;2117;47.972;7.830;2024-03-08T02:25:49;2.00;99.90
4207;DHT22;2117;47.972;7.830;2024-03-08T02:28:16;2.00;99.90
4207;DHT22;2117;47.972;7.830;2024-03-08T02:30:44;2.00;99.90
4207;DHT22;2117;47.972;7.830;2024-03-08T02:33:09;2.00;99.90
4207;DHT22;2117;47.972;7.830;2024-03-08T02:35:36;2.00;99.90
4207;DHT22;2117;47.972;7.830;2024-03-08T02:38:02;2.00;99.90
4207;DHT22;2117;47.972;7.830;2024-03-08T02:40:29;1.90;99.90
4207;DHT22;2117;47.972;7.830;2024-03-08T02:42:54;1.90;99.90
4207;DHT22;2117;47.972;7.830;2024-03-08T02:45:20;1.90;99.90
4207;DHT22;2117;47.972;7.830;2024-03-08T02:47:46;1.80;99.90
4207;DHT22;2117;47.972;7.830;2024-03-08T02:50:11;1.80;99.90
4207;DHT22;2117;47.972;7.830;2024-03-08T02:52:41;1.80;99.90
4207;DHT22;2117;47.972;7.830;2024-03-08T02:55:07;1.80;99.90
4207;DHT22;2117;47.972;7.830;2024-03-08T02:57:34;1.80;99.90
4207;DHT22;2117;47.972;7.830;2024-03-08T02:59:59;1.80;99.90
4207;DHT22;2117;47.972;7.830;2024-03-08T03:02:25;1.80;99.90
4207;DHT22;2117;47.972;7.830;2024-03-08T03:04:52;1.80;99.90
4207;DHT22;2117;47.972;7.830;2024-03-08T03:07:18;1.80;99.90
4207;DHT22;2117;47.972;7.830;2024-03-08T03:09:43;1.80;99.90
4207;DHT22;2117;47.972;7.830;2024-03-08T03:12:09;1.80;99.90
4207;DHT22;2117;47.972;7.830;2024-03-08T03:14:37;1.80;99.90
4207;DHT22;2117;47.972;7.830;2024-03-08T03:17:05;1.80;99.90
4207;DHT22;2117;47.972;7.830;2024-03-08T03:19:31;1.80;99.90
4207;DHT22;2117;47.972;7.830;2024-03-08T03:21:56;1.80;99.90
4207;DHT22;2117;47.972;7.830;2024-03-08T03:24:22;1.80;99.90
4207;DHT22;2117;47.972;7.830;2024-03-08T03:26:49;1.70;99.90
4207;DHT22;2117;47.972;7.830;2024-03-08T03:29:15;1.70;99.90
4207;DHT22;2117;47.972;7.830;2024-03-08T03:31:42;1.70;99.90
4207;DHT22;2117;47.972;7.830;2024-03-08T03:34:10;1.70;99.90
4207;DHT22;2117;47.972;7.830;2024-03-08T03:36:37;1.70;99.90
4207;DHT22;2117;47.972;7.830;2024-03-08T03:39:10;1.70;99.90
4207;DHT22;2117;47.972;7.830;2024-03-08T03:41:36;1.70;99.90
4207;DHT22;2117;47.972;7.830;2024-03-08T03:44:02;1.70;99.90
4207;DHT22;2117;47.972;7.830;2024-03-08T03:46:28;1.70;99.90
4207;DHT22;2117;47.972;7.830;2024-03-08T03:48:54;1.70;99.90
4207;DHT22;2117;47.972;7.830;2024-03-08T03:51:21;1.70;99.90
4207;DHT22;2117;47.972;7.830;2024-03-08T03:53:46;1.60;99.90
4207;DHT22;2117;47.972;7.830;2024-03-08T03:56:12;1.60;99.90
4207;DHT22;2117;47.972;7.830;2024-03-08T03:58:38;1.50;99.90
4207;DHT22;2117;47.972;7.830;2024-03-08T04:01:05;1.50;99.90
4207;DHT22;2117;47.972;7.830;2024-03-08T04:03:31;1.50;99.90
4207;DHT22;2117;47.972;7.830;2024-03-08T04:05:56;1.40;99.90
4207;DHT22;2117;47.972;7.830;2024-03-08T04:08:22;1.40;99.90
4207;DHT22;2117;47.972;7.830;2024-03-08T04:10:49;1.40;99.90
4207;DHT22;2117;47.972;7.830;2024-03-08T04:13:15;1.40;99.90
4207;DHT22;2117;47.972;7.830;2024-03-08T04:15:41;1.40;99.90
4207;DHT22;2117;47.972;7.830;2024-03-08T04:18:09;1.40;99.90
4207;DHT22;2117;47.972;7.830;2024-03-08T04:20:35;1.40;99.90
4207;DHT22;2117;47.972;7.830;2024-03-08T04:23:02;1.40;99.90
4207;DHT22;2117;47.972;7.830;2024-03-08T04:25:27;1.40;99.90
4207;DHT22;2117;47.972;7.830;2024-03-08T04:27:53;1.50;99.90
4207;DHT22;2117;47.972;7.830;2024-03-08T04:30:18;1.50;99.90
4207;DHT22;2117;47.972;7.830;2024-03-08T04:32:46;1.40;99.90
4207;DHT22;2117;47.972;7.830;2024-03-08T04:35:12;1.40;99.90
4207;DHT22;2117;47.972;7.830;2024-03-08T04:37:38;1.40;99.90
4207;DHT22;2117;47.972;7.830;2024-03-08T04:40:05;1.30;99.90
4207;DHT22;2117;47.972;7.830;2024-03-08T04:42:30;1.30;99.90
4207;DHT22;2117;47.972;7.830;2024-03-08T04:44:58;1.30;99.90
4207;DHT22;2117;47.972;7.830;2024-03-08T04:47:23;1.30;99.90
4207;DHT22;2117;47.972;7.830;2024-03-08T04:49:50;1.20;99.90
4207;DHT22;2117;47.972;7.830;2024-03-08T04:52:15;1.20;99.90
4207;DHT22;2117;47.972;7.830;2024-03-08T04:54:42;1.20;99.90
4207;DHT22;2117;47.972;7.830;2024-03-08T04:57:08;1.20;99.90
4207;DHT22;2117;47.972;7.830;2024-03-08T04:59:34;1.10;99.90
4207;DHT22;2117;47.972;7.830;2024-03-08T05:01:59;1.20;99.90
4207;DHT22;2117;47.972;7.830;2024-03-08T05:04:25;1.20;99.90
4207;DHT22;2117;47.972;7.830;2024-03-08T05:06:50;1.20;99.90
4207;DHT22;2117;47.972;7.830;2024-03-08T05:09:16;1.10;99.90
4207;DHT22;2117;47.972;7.830;2024-03-08T05:11:43;1.10;99.90
4207;DHT22;2117;47.972;7.830;2024-03-08T05:14:12;1.10;99.90
4207;DHT22;2117;47.972;7.830;2024-03-08T05:16:42;1.10;99.90
4207;DHT22;2117;47.972;7.830;2024-03-08T05:19:08;1.00;99.90
4207;DHT22;2117;47.972;7.830;2024-03-08T05:21:34;1.00;99.90
4207;DHT22;2117;47.972;7.830;2024-03-08T05:23:59;1.00;99.90
4207;DHT22;2117;47.972;7.830;2024-03-08T05:26:25;1.00;99.90
4207;DHT22;2117;47.972;7.830;2024-03-08T05:28:50;1.00;99.90
4207;DHT22;2117;47.972;7.830;2024-03-08T05:31:22;1.00;99.90
4207;DHT22;2117;47.972;7.830;2024-03-08T05:33:48;1.00;99.90
4207;DHT22;2117;47.972;7.830;2024-03-08T05:36:14;1.00;99.90
4207;DHT22;2117;47.972;7.830;2024-03-08T05:38:42;1.10;99.90
4207;DHT22;2117;47.972;7.830;2024-03-08T05:41:09;1.10;99.90
4207;DHT22;2117;47.972;7.830;2024-03-08T05:43:34;1.10;99.90
4207;DHT22;2117;47.972;7.830;2024-03-08T05:46:00;1.10;99.90
4207;DHT22;2117;47.972;7.830;2024-03-08T05:48:25;1.10;99.90
4207;DHT22;2117;47.972;7.830;2024-03-08T05:50:51;1.10;99.90
4207;DHT22;2117;47.972;7.830;2024-03-08T05:53:17;1.10;99.90
4207;DHT22;2117;47.972;7.830;2024-03-08T05:55:42;1.10;99.90
4207;DHT22;2117;47.972;7.830;2024-03-08T05:58:08;1.10;99.90
4207;DHT22;2117;47.972;7.830;2024-03-08T06:00:34;1.10;99.90
4207;DHT22;2117;47.972;7.830;2024-03-08T06:03:01;1.10;99.90
4207;DHT22;2117;47.972;7.830;2024-03-08T06:05:28;1.10;99.90
4207;DHT22;2117;47.972;7.830;2024-03-08T06:07:53;1.10;99.90
4207;DHT22;2117;47.972;7.830;2024-03-08T06:10:19;1.10;99.90
4207;DHT22;2117;47.972;7.830;2024-03-08T06:12:45;1.00;99.90
4207;DHT22;2117;47.972;7.830;2024-03-08T06:15:10;1.00;99.90
4207;DHT22;2117;47.972;7.830;2024-03-08T06:17:40;1.00;99.90
4207;DHT22;2117;47.972;7.830;2024-03-08T06:20:06;1.00;99.90
4207;DHT22;2117;47.972;7.830;2024-03-08T06:22:37;1.00;99.90
4207;DHT22;2117;47.972;7.830;2024-03-08T06:25:03;1.00;99.90
4207;DHT22;2117;47.972;7.830;2024-03-08T06:27:29;1.00;99.90
4207;DHT22;2117;47.972;7.830;2024-03-08T06:29:55;1.00;99.90
4207;DHT22;2117;47.972;7.830;2024-03-08T06:32:20;1.00;99.90
4207;DHT22;2117;47.972;7.830;2024-03-08T06:34:46;1.00;99.90
4207;DHT22;2117;47.972;7.830;2024-03-08T06:37:11;1.00;99.90
4207;DHT22;2117;47.972;7.830;2024-03-08T06:39:37;1.10;99.90
4207;DHT22;2117;47.972;7.830;2024-03-08T06:42:02;1.10;99.90
4207;DHT22;2117;47.972;7.830;2024-03-08T06:44:30;1.10;99.90
4207;DHT22;2117;47.972;7.830;2024-03-08T06:46:55;1.10;99.90
4207;DHT22;2117;47.972;7.830;2024-03-08T06:49:21;1.10;99.90
4207;DHT22;2117;47.972;7.830;2024-03-08T06:51:46;1.10;99.90
4207;DHT22;2117;47.972;7.830;2024-03-08T06:54:12;1.10;99.90
4207;DHT22;2117;47.972;7.830;2024-03-08T06:56:37;1.10;99.90
4207;DHT22;2117;47.972;7.830;2024-03-08T06:59:03;1.20;99.90
4207;DHT22;2117;47.972;7.830;2024-03-08T07:01:29;1.20;99.90
4207;DHT22;2117;47.972;7.830;2024-03-08T07:04:00;1.20;99.90
4207;DHT22;2117;47.972;7.830;2024-03-08T07:06:30;1.30;99.90
4207;DHT22;2117;47.972;7.830;2024-03-08T07:08:58;1.30;99.90
4207;DHT22;2117;47.972;7.830;2024-03-08T07:11:24;1.30;99.90
4207;DHT22;2117;47.972;7.830;2024-03-08T07:13:50;1.40;99.90
4207;DHT22;2117;47.972;7.830;2024-03-08T07:16:15;1.40;99.90
4207;DHT22;2117;47.972;7.830;2024-03-08T07:18:41;1.50;99.90
4207;DHT22;2117;47.972;7.830;2024-03-08T07:21:09;1.50;99.90
4207;DHT22;2117;47.972;7.830;2024-03-08T07:23:36;1.50;99.90
4207;DHT22;2117;47.972;7.830;2024-03-08T07:26:40;1.60;99.90
4207;DHT22;2117;47.972;7.830;2024-03-08T07:29:05;1.60;99.90
4207;DHT22;2117;47.972;7.830;2024-03-08T07:31:31;1.70;99.90
4207;DHT22;2117;47.972;7.830;2024-03-08T07:34:02;1.80;99.90
4207;DHT22;2117;47.972;7.830;2024-03-08T07:36:28;1.90;99.90
4207;DHT22;2117;47.972;7.830;2024-03-08T07:38:54;1.90;99.90
4207;DHT22;2117;47.972;7.830;2024-03-08T07:41:19;2.00;99.90
4207;DHT22;2117;47.972;7.830;2024-03-08T07:43:45;2.10;99.90
4207;DHT22;2117;47.972;7.830;2024-03-08T07:46:11;2.10;99.90
4207;DHT22;2117;47.972;7.830;2024-03-08T07:48:38;2.20;99.90
4207;DHT22;2117;47.972;7.830;2024-03-08T07:51:05;2.30;99.90
4207;DHT22;2117;47.972;7.830;2024-03-08T07:53:31;2.40;99.90
4207;DHT22;2117;47.972;7.830;2024-03-08T07:55:56;2.50;99.90
4207;DHT22;2117;47.972;7.830;2024-03-08T07:58:22;2.70;99.90
4207;DHT22;2117;47.972;7.830;2024-03-08T08:00:49;2.80;99.90
4207;DHT22;2117;47.972;7.830;2024-03-08T08:03:15;2.90;99.90
4207;DHT22;2117;47.972;7.830;2024-03-08T08:05:41;3.00;99.90
4207;DHT22;2117;47.972;7.830;2024-03-08T08:08:09;3.10;99.90
4207;DHT22;2117;47.972;7.830;2024-03-08T08:10:36;3.20;99.90
4207;DHT22;2117;47.972;7.830;2024-03-08T08:13:02;3.30;99.90
4207;DHT22;2117;47.972;7.830;2024-03-08T08:15:29;3.40;99.90
4207;DHT22;2117;47.972;7.830;2024-03-08T08:17:55;3.50;99.90
4207;DHT22;2117;47.972;7.830;2024-03-08T08:20:21;3.60;99.90
4207;DHT22;2117;47.972;7.830;2024-03-08T08:22:47;3.70;99.90
4207;DHT22;2117;47.972;7.830;2024-03-08T08:25:13;3.80;99.90
4207;DHT22;2117;47.972;7.830;2024-03-08T08:27:41;3.90;99.90
4207;DHT22;2117;47.972;7.830;2024-03-08T08:30:08;4.00;99.90
4207;DHT22;2117;47.972;7.830;2024-03-08T08:32:35;4.10;99.90
4207;DHT22;2117;47.972;7.830;2024-03-08T08:35:04;4.30;99.90
4207;DHT22;2117;47.972;7.830;2024-03-08T08:37:31;4.40;99.90
4207;DHT22;2117;47.972;7.830;2024-03-08T08:39:57;4.50;99.90
4207;DHT22;2117;47.972;7.830;2024-03-08T08:42:23;4.60;99.90
4207;DHT22;2117;47.972;7.830;2024-03-08T08:44:49;4.70;99.90
4207;DHT22;2117;47.972;7.830;2024-03-08T08:47:16;4.80;99.90
4207;DHT22;2117;47.972;7.830;2024-03-08T08:49:44;4.90;99.90
4207;DHT22;2117;47.972;7.830;2024-03-08T08:52:11;5.00;99.90
4207;DHT22;2117;47.972;7.830;2024-03-08T08:54:37;5.10;99.90
4207;DHT22;2117;47.972;7.830;2024-03-08T08:57:02;5.10;99.90
4207;DHT22;2117;47.972;7.830;2024-03-08T08:59:33;5.20;99.90
4207;DHT22;2117;47.972;7.830;2024-03-08T09:02:01;5.30;99.90
4207;DHT22;2117;47.972;7.830;2024-03-08T09:04:27;5.40;99.90
4207;DHT22;2117;47.972;7.830;2024-03-08T09:06:53;5.50;99.90
4207;DHT22;2117;47.972;7.830;2024-03-08T09:09:19;5.50;99.90
4207;DHT22;2117;47.972;7.830;2024-03-08T09:11:45;5.60;99.90
4207;DHT22;2117;47.972;7.830;2024-03-08T09:14:11;5.70;99.90
4207;DHT22;2117;47.972;7.830;2024-03-08T09:16:37;5.70;99.90
4207;DHT22;2117;47.972;7.830;2024-03-08T09:19:02;5.80;99.90
4207;DHT22;2117;47.972;7.830;2024-03-08T09:21:28;5.90;99.90
4207;DHT22;2117;47.972;7.830;2024-03-08T09:23:54;6.00;99.90
4207;DHT22;2117;47.972;7.830;2024-03-08T09:26:19;6.10;99.90
4207;DHT22;2117;47.972;7.830;2024-03-08T09:28:45;7.50;99.90
4207;DHT22;2117;47.972;7.830;2024-03-08T09:31:11;8.70;99.90
4207;DHT22;2117;47.972;7.830;2024-03-08T09:33:37;9.10;99.90
4207;DHT22;2117;47.972;7.830;2024-03-08T09:36:05;9.10;99.90
4207;DHT22;2117;47.972;7.830;2024-03-08T09:38:31;8.90;99.90
4207;DHT22;2117;47.972;7.830;2024-03-08T09:40:56;8.70;99.90
4207;DHT22;2117;47.972;7.830;2024-03-08T09:43:22;8.60;99.90
4207;DHT22;2117;47.972;7.830;2024-03-08T09:45:49;8.40;99.90
4207;DHT22;2117;47.972;7.830;2024-03-08T09:48:17;8.30;99.90
4207;DHT22;2117;47.972;7.830;2024-03-08T09:50:44;8.20;99.90
4207;DHT22;2117;47.972;7.830;2024-03-08T09:53:12;8.10;99.90
4207;DHT22;2117;47.972;7.830;2024-03-08T09:55:38;8.10;99.90
4207;DHT22;2117;47.972;7.830;2024-03-08T09:58:08;8.10;99.90
4207;DHT22;2117;47.972;7.830;2024-03-08T10:00:54;8.10;99.90
4207;DHT22;2117;47.972;7.830;2024-03-08T10:03:20;8.10;99.90
4207;DHT22;2117;47.972;7.830;2024-03-08T10:05:45;8.00;99.90
4207;DHT22;2117;47.972;7.830;2024-03-08T10:08:12;8.10;99.90
4207;DHT22;2117;47.972;7.830;2024-03-08T10:10:39;8.10;99.90
4207;DHT22;2117;47.972;7.830;2024-03-08T10:13:08;8.20;99.90
4207;DHT22;2117;47.972;7.830;2024-03-08T10:15:35;8.20;99.90
4207;DHT22;2117;47.972;7.830;2024-03-08T10:18:00;8.20;99.90
4207;DHT22;2117;47.972;7.830;2024-03-08T10:20:28;8.20;99.90
4207;DHT22;2117;47.972;7.830;2024-03-08T10:22:57;8.30;99.90
4207;DHT22;2117;47.972;7.830;2024-03-08T10:25:24;8.30;99.90
4207;DHT22;2117;47.972;7.830;2024-03-08T10:27:49;8.40;99.90
4207;DHT22;2117;47.972;7.830;2024-03-08T10:30:17;8.50;99.90
4207;DHT22;2117;47.972;7.830;2024-03-08T10:32:45;8.50;99.90
4207;DHT22;2117;47.972;7.830;2024-03-08T10:35:11;8.60;99.90
4207;DHT22;2117;47.972;7.830;2024-03-08T10:37:49;8.70;99.90
4207;DHT22;2117;47.972;7.830;2024-03-08T10:40:24;8.70;99.90
4207;DHT22;2117;47.972;7.830;2024-03-08T10:42:55;8.80;99.90
4207;DHT22;2117;47.972;7.830;2024-03-08T10:45:38;8.80;99.90
4207;DHT22;2117;47.972;7.830;2024-03-08T10:50:43;8.90;99.90
4207;DHT22;2117;47.972;7.830;2024-03-08T10:53:13;9.00;99.90
4207;DHT22;2117;47.972;7.830;2024-03-08T10:55:40;9.00;99.90
4207;DHT22;2117;47.972;7.830;2024-03-08T10:58:08;9.20;99.90
4207;DHT22;2117;47.972;7.830;2024-03-08T11:00:35;9.30;99.90
4207;DHT22;2117;47.972;7.830;2024-03-08T11:03:00;9.40;99.90
4207;DHT22;2117;47.972;7.830;2024-03-08T11:05:36;9.50;99.90
4207;DHT22;2117;47.972;7.830;2024-03-08T11:08:20;9.50;99.90
4207;DHT22;2117;47.972;7.830;2024-03-08T11:10:53;9.60;99.90
4207;DHT22;2117;47.972;7.830;2024-03-08T11:13:41;9.70;99.90
4207;DHT22;2117;47.972;7.830;2024-03-08T11:16:09;9.80;99.90
4207;DHT22;2117;47.972;7.830;2024-03-08T11:18:35;9.90;99.90
4207;DHT22;2117;47.972;7.830;2024-03-08T11:21:05;10.00;99.90
4207;DHT22;2117;47.972;7.830;2024-03-08T11:23:40;10.10;99.90
4207;DHT22;2117;47.972;7.830;2024-03-08T11:26:23;10.50;99.90
4207;DHT22;2117;47.972;7.830;2024-03-08T11:28:49;11.50;99.90
4207;DHT22;2117;47.972;7.830;2024-03-08T11:33:47;12.00;99.90
4207;DHT22;2117;47.972;7.830;2024-03-08T11:36:21;11.80;99.90
4207;DHT22;2117;47.972;7.830;2024-03-08T11:38:48;11.70;99.90
4207;DHT22;2117;47.972;7.830;2024-03-08T11:41:22;11.50;99.90
4207;DHT22;2117;47.972;7.830;2024-03-08T11:43:49;11.40;99.90
4207;DHT22;2117;47.972;7.830;2024-03-08T11:46:16;11.40;99.90
4207;DHT22;2117;47.972;7.830;2024-03-08T11:48:43;11.50;99.90
4207;DHT22;2117;47.972;7.830;2024-03-08T11:51:11;11.50;99.90
4207;DHT22;2117;47.972;7.830;2024-03-08T11:53:37;11.50;99.90
4207;DHT22;2117;47.972;7.830;2024-03-08T11:56:21;11.70;99.90
4207;DHT22;2117;47.972;7.830;2024-03-08T11:58:54;11.90;99.90
4207;DHT22;2117;47.972;7.830;2024-03-08T12:01:22;12.00;99.90
4207;DHT22;2117;47.972;7.830;2024-03-08T12:03:59;12.10;99.90
4207;DHT22;2117;47.972;7.830;2024-03-08T12:06:25;12.30;99.90
4207;DHT22;2117;47.972;7.830;2024-03-08T12:08:52;12.50;99.90
4207;DHT22;2117;47.972;7.830;2024-03-08T12:11:19;12.60;99.90
4207;DHT22;2117;47.972;7.830;2024-03-08T12:13:49;12.80;99.90
4207;DHT22;2117;47.972;7.830;2024-03-08T12:16:19;13.00;99.90
4207;DHT22;2117;47.972;7.830;2024-03-08T12:18:47;13.10;99.90
4207;DHT22;2117;47.972;7.830;2024-03-08T12:21:13;13.60;99.90
4207;DHT22;2117;47.972;7.830;2024-03-08T12:23:43;14.40;99.90
4207;DHT22;2117;47.972;7.830;2024-03-08T12:26:24;15.20;99.90
4207;DHT22;2117;47.972;7.830;2024-03-08T12:28:51;15.70;99.90
4207;DHT22;2117;47.972;7.830;2024-03-08T12:31:17;16.30;99.90
4207;DHT22;2117;47.972;7.830;2024-03-08T12:33:53;16.70;99.90
4207;DHT22;2117;47.972;7.830;2024-03-08T12:36:19;17.10;99.90
4207;DHT22;2117;47.972;7.830;2024-03-08T12:38:46;17.30;99.90
4207;DHT22;2117;47.972;7.830;2024-03-08T12:41:18;17.60;99.90
4207;DHT22;2117;47.972;7.830;2024-03-08T12:43:48;17.70;99.90
4207;DHT22;2117;47.972;7.830;2024-03-08T12:46:20;17.90;99.90
4207;DHT22;2117;47.972;7.830;2024-03-08T12:48:46;18.00;99.90
4207;DHT22;2117;47.972;7.830;2024-03-08T12:51:21;18.10;99.90
4207;DHT22;2117;47.972;7.830;2024-03-08T12:53:47;18.30;99.90
4207;DHT22;2117;47.972;7.830;2024-03-08T12:56:14;18.40;99.90
4207;DHT22;2117;47.972;7.830;2024-03-08T12:58:44;18.50;99.90
4207;DHT22;2117;47.972;7.830;2024-03-08T13:01:10;18.50;99.90
4207;DHT22;2117;47.972;7.830;2024-03-08T13:03:36;18.70;99.90
4207;DHT22;2117;47.972;7.830;2024-03-08T13:06:05;18.80;99.90
4207;DHT22;2117;47.972;7.830;2024-03-08T13:08:37;19.00;99.90
4207;DHT22;2117;47.972;7.830;2024-03-08T13:11:09;19.10;99.90
4207;DHT22;2117;47.972;7.830;2024-03-08T13:13:42;19.30;99.90
4207;DHT22;2117;47.972;7.830;2024-03-08T13:16:08;19.40;99.90
4207;DHT22;2117;47.972;7.830;2024-03-08T13:18:37;19.10;99.90
4207;DHT22;2117;47.972;7.830;2024-03-08T13:21:03;18.90;99.90
4207;DHT22;2117;47.972;7.830;2024-03-08T13:23:35;18.80;99.90
4207;DHT22;2117;47.972;7.830;2024-03-08T13:26:11;18.70;99.90
4207;DHT22;2117;47.972;7.830;2024-03-08T13:28:45;18.60;99.90
4207;DHT22;2117;47.972;7.830;2024-03-08T13:31:11;18.60;99.90
4207;DHT22;2117;47.972;7.830;2024-03-08T13:33:39;18.80;99.90
4207;DHT22;2117;47.972;7.830;2024-03-08T13:36:06;18.90;99.90
4207;DHT22;2117;47.972;7.830;2024-03-08T13:38:47;19.20;99.90
4207;DHT22;2117;47.972;7.830;2024-03-08T13:41:14;19.60;99.90
4207;DHT22;2117;47.972;7.830;2024-03-08T13:43:42;19.80;99.90
4207;DHT22;2117;47.972;7.830;2024-03-08T13:46:08;19.80;99.90
4207;DHT22;2117;47.972;7.830;2024-03-08T13:48:36;19.90;99.90
4207;DHT22;2117;47.972;7.830;2024-03-08T13:51:03;20.00;99.90
4207;DHT22;2117;47.972;7.830;2024-03-08T13:53:30;20.00;99.90
4207;DHT22;2117;47.972;7.830;2024-03-08T13:55:55;20.10;99.90
4207;DHT22;2117;47.972;7.830;2024-03-08T13:58:22;20.10;99.90
4207;DHT22;2117;47.972;7.830;2024-03-08T14:00:47;20.10;99.90
4207;DHT22;2117;47.972;7.830;2024-03-08T14:03:13;20.10;99.90
4207;DHT22;2117;47.972;7.830;2024-03-08T14:05:40;20.00;99.90
4207;DHT22;2117;47.972;7.830;2024-03-08T14:08:06;20.00;99.90
4207;DHT22;2117;47.972;7.830;2024-03-08T14:10:33;20.00;99.90
4207;DHT22;2117;47.972;7.830;2024-03-08T14:13:00;20.20;99.90
4207;DHT22;2117;47.972;7.830;2024-03-08T14:15:26;20.30;99.90
4207;DHT22;2117;47.972;7.830;2024-03-08T14:17:55;20.30;99.90
4207;DHT22;2117;47.972;7.830;2024-03-08T14:20:21;20.20;99.90
4207;DHT22;2117;47.972;7.830;2024-03-08T14:22:54;20.10;99.90
4207;DHT22;2117;47.972;7.830;2024-03-08T14:25:20;19.90;99.90
4207;DHT22;2117;47.972;7.830;2024-03-08T14:27:49;19.70;99.90
4207;DHT22;2117;47.972;7.830;2024-03-08T14:30:15;19.50;99.90
4207;DHT22;2117;47.972;7.830;2024-03-08T14:33:00;19.30;99.90
4207;DHT22;2117;47.972;7.830;2024-03-08T14:35:26;19.30;99.90
4207;DHT22;2117;47.972;7.830;2024-03-08T14:37:52;19.10;99.90
4207;DHT22;2117;47.972;7.830;2024-03-08T14:40:18;19.10;99.90
4207;DHT22;2117;47.972;7.830;2024-03-08T14:42:48;18.90;99.90
4207;DHT22;2117;47.972;7.830;2024-03-08T14:45:15;18.70;99.90
4207;DHT22;2117;47.972;7.830;2024-03-08T14:47:41;18.60;99.90
4207;DHT22;2117;47.972;7.830;2024-03-08T14:50:07;18.40;99.90
4207;DHT22;2117;47.972;7.830;2024-03-08T14:52:35;18.20;99.90
4207;DHT22;2117;47.972;7.830;2024-03-08T14:55:01;18.00;99.90
4207;DHT22;2117;47.972;7.830;2024-03-08T14:57:31;17.80;99.90
4207;DHT22;2117;47.972;7.830;2024-03-08T14:59:58;17.60;99.90
4207;DHT22;2117;47.972;7.830;2024-03-08T15:02:28;17.40;99.90
4207;DHT22;2117;47.972;7.830;2024-03-08T15:04:53;17.20;99.90
4207;DHT22;2117;47.972;7.830;2024-03-08T15:07:23;16.90;99.90
4207;DHT22;2117;47.972;7.830;2024-03-08T15:09:49;16.70;99.90
4207;DHT22;2117;47.972;7.830;2024-03-08T15:12:15;16.50;99.90
4207;DHT22;2117;47.972;7.830;2024-03-08T15:14:40;16.30;99.90
4207;DHT22;2117;47.972;7.830;2024-03-08T15:17:09;16.10;99.90
4207;DHT22;2117;47.972;7.830;2024-03-08T15:19:43;16.00;99.90
4207;DHT22;2117;47.972;7.830;2024-03-08T15:22:10;15.90;99.90
4207;DHT22;2117;47.972;7.830;2024-03-08T15:24:36;15.90;99.90
4207;DHT22;2117;47.972;7.830;2024-03-08T15:27:03;15.90;99.90
4207;DHT22;2117;47.972;7.830;2024-03-08T15:29:28;15.90;99.90
4207;DHT22;2117;47.972;7.830;2024-03-08T15:31:54;15.80;99.90
4207;DHT22;2117;47.972;7.830;2024-03-08T15:34:20;15.90;99.90
4207;DHT22;2117;47.972;7.830;2024-03-08T15:36:50;15.90;99.90
4207;DHT22;2117;47.972;7.830;2024-03-08T15:39:17;16.00;99.90
4207;DHT22;2117;47.972;7.830;2024-03-08T15:41:46;16.20;99.90
4207;DHT22;2117;47.972;7.830;2024-03-08T15:44:11;16.30;99.90
4207;DHT22;2117;47.972;7.830;2024-03-08T15:46:39;16.60;99.90
4207;DHT22;2117;47.972;7.830;2024-03-08T15:49:05;16.60;99.90
4207;DHT22;2117;47.972;7.830;2024-03-08T15:51:32;16.50;99.90
4207;DHT22;2117;47.972;7.830;2024-03-08T15:53:58;16.40;99.90
4207;DHT22;2117;47.972;7.830;2024-03-08T15:56:24;16.10;99.90
4207;DHT22;2117;47.972;7.830;2024-03-08T15:58:51;15.90;99.90
4207;DHT22;2117;47.972;7.830;2024-03-08T16:01:17;15.70;99.90
4207;DHT22;2117;47.972;7.830;2024-03-08T16:03:45;15.50;99.90
4207;DHT22;2117;47.972;7.830;2024-03-08T16:06:13;15.60;99.90
4207;DHT22;2117;47.972;7.830;2024-03-08T16:08:39;15.60;99.90
4207;DHT22;2117;47.972;7.830;2024-03-08T16:11:05;15.40;99.90
4207;DHT22;2117;47.972;7.830;2024-03-08T16:13:34;15.20;99.90
4207;DHT22;2117;47.972;7.830;2024-03-08T16:16:06;15.10;99.90
4207;DHT22;2117;47.972;7.830;2024-03-08T16:18:32;14.90;99.90